createdAt,value
2017-09-20T00:00:35.416Z,9.25
2017-09-20T00:03:03.834Z,9.21
2017-09-20T00:05:32.202Z,9.22
2017-09-20T00:08:04.877Z,9.21
2017-09-20T00:10:37.256Z,9.16
2017-09-20T00:13:10.249Z,9.11
2017-09-20T00:15:44.861Z,9.08
2017-09-20T00:18:13.184Z,9.05
2017-09-20T00:20:41.531Z,9.01
2017-09-20T00:23:11.524Z,8.99
2017-09-20T00:25:39.842Z,8.96
2017-09-20T00:28:08.302Z,8.91
2017-09-20T00:30:38.759Z,8.83
2017-09-20T00:33:07.528Z,8.81
2017-09-20T00:35:37.622Z,8.79
2017-09-20T00:38:06.113Z,8.84
2017-09-20T00:40:40.251Z,8.82
2017-09-20T00:43:08.595Z,8.75
2017-09-20T00:45:37.013Z,8.74
2017-09-20T00:48:05.356Z,8.72
2017-09-20T00:50:34.162Z,8.68
2017-09-20T00:53:03.239Z,8.63
2017-09-20T00:55:37.742Z,8.61
2017-09-20T00:58:06.253Z,8.61
2017-09-20T01:00:48.097Z,8.58
2017-09-20T01:03:16.542Z,8.57
2017-09-20T01:05:47.064Z,8.65
2017-09-20T01:08:15.465Z,8.63
2017-09-20T01:10:44.003Z,8.66
2017-09-20T01:13:15.913Z,8.62
2017-09-20T01:15:45.209Z,8.65
2017-09-20T01:18:14.507Z,8.74
2017-09-20T01:21:01.444Z,8.75
2017-09-20T01:23:37.220Z,8.68
2017-09-20T01:26:05.800Z,8.57
2017-09-20T01:28:39.450Z,8.64
2017-09-20T01:31:13.876Z,8.61
2017-09-20T01:33:43.488Z,8.65
2017-09-20T01:36:11.959Z,8.67
2017-09-20T01:38:40.260Z,8.64
2017-09-20T01:41:09.581Z,8.47
2017-09-20T01:43:37.937Z,8.49
2017-09-20T01:46:07.253Z,8.61
2017-09-20T01:48:36.529Z,8.70
2017-09-20T01:51:09.537Z,8.51
2017-09-20T01:53:39.768Z,8.46
2017-09-20T01:56:09.039Z,8.45
2017-09-20T01:58:37.430Z,8.57
2017-09-20T02:01:10.593Z,8.48
2017-09-20T02:03:40.028Z,8.42
2017-09-20T02:06:09.329Z,8.35
2017-09-20T02:08:38.940Z,8.52
2017-09-20T02:11:08.215Z,8.61
2017-09-20T02:13:36.608Z,8.67
2017-09-20T02:16:06.844Z,8.65
2017-09-20T02:18:39.810Z,8.70
2017-09-20T02:21:08.210Z,8.69
2017-09-20T02:23:38.421Z,8.57
2017-09-20T02:26:08.921Z,8.45
2017-09-20T02:28:37.327Z,8.56
2017-09-20T02:31:06.641Z,8.46
2017-09-20T02:33:35.964Z,8.47
2017-09-20T02:36:05.235Z,8.48
2017-09-20T02:38:33.647Z,8.62
2017-09-20T02:41:01.995Z,8.56
2017-09-20T02:43:32.253Z,8.70
2017-09-20T02:46:00.609Z,8.56
2017-09-20T02:48:29.914Z,8.74
2017-09-20T02:51:02.322Z,8.84
2017-09-20T02:53:30.664Z,8.73
2017-09-20T02:56:01.828Z,8.72
2017-09-20T02:58:34.194Z,8.54
2017-09-20T03:01:05.680Z,8.70
2017-09-20T03:03:34.931Z,8.72
2017-09-20T03:06:05.432Z,8.76
2017-09-20T03:08:34.762Z,8.71
2017-09-20T03:11:04.086Z,8.80
2017-09-20T03:13:37.084Z,8.83
2017-09-20T03:16:11.849Z,8.78
2017-09-20T03:18:43.079Z,8.84
2017-09-20T03:21:12.323Z,8.90
2017-09-20T03:23:41.115Z,8.90
2017-09-20T03:26:09.415Z,8.86
2017-09-20T03:28:51.794Z,8.94
2017-09-20T03:31:23.394Z,8.95
2017-09-20T03:33:52.678Z,8.80
2017-09-20T03:36:21.995Z,8.76
2017-09-20T03:38:51.281Z,8.87
2017-09-20T03:41:20.840Z,8.90
2017-09-20T03:43:53.261Z,8.88
2017-09-20T03:46:22.842Z,8.83
2017-09-20T03:48:51.241Z,8.71
2017-09-20T03:51:19.557Z,8.75
2017-09-20T03:53:48.927Z,8.81
2017-09-20T03:56:18.224Z,8.86
2017-09-20T03:58:50.922Z,8.85
2017-09-20T04:01:20.230Z,8.78
2017-09-20T04:03:49.744Z,8.78
2017-09-20T04:06:18.075Z,8.62
2017-09-20T04:08:46.495Z,8.54
2017-09-20T04:11:16.831Z,8.56
2017-09-20T04:13:46.980Z,8.57
2017-09-20T04:16:15.354Z,8.66
2017-09-20T04:18:43.721Z,8.64
2017-09-20T04:21:12.367Z,8.71
2017-09-20T04:23:40.702Z,8.46
2017-09-20T04:26:12.392Z,8.59
2017-09-20T04:28:41.929Z,8.65
2017-09-20T04:31:10.314Z,8.63
2017-09-20T04:33:38.711Z,8.67
2017-09-20T04:36:07.084Z,8.75
2017-09-20T04:38:37.336Z,8.73
2017-09-20T04:41:05.675Z,8.72
2017-09-20T04:43:34.010Z,8.80
2017-09-20T04:46:02.321Z,8.79
2017-09-20T04:48:31.424Z,8.80
2017-09-20T04:51:00.533Z,8.84
2017-09-20T04:53:28.858Z,8.88
2017-09-20T04:55:57.195Z,8.89
2017-09-20T04:58:25.508Z,8.73
2017-09-20T05:00:54.343Z,8.82
2017-09-20T05:03:22.654Z,8.74
2017-09-20T05:05:51.751Z,8.68
2017-09-20T05:08:20.079Z,8.72
2017-09-20T05:10:48.443Z,8.59
2017-09-20T05:13:16.808Z,8.71
2017-09-20T05:15:45.121Z,8.62
2017-09-20T05:18:14.634Z,8.62
2017-09-20T05:20:42.952Z,8.68
2017-09-20T05:23:11.269Z,8.63
2017-09-20T05:25:39.610Z,8.65
2017-09-20T05:28:08.021Z,8.66
2017-09-20T05:30:36.739Z,8.62
2017-09-20T05:33:05.052Z,8.68
2017-09-20T05:35:33.370Z,8.78
2017-09-20T05:38:01.743Z,8.84
2017-09-20T05:40:30.047Z,8.72
2017-09-20T05:42:58.400Z,8.70
2017-09-20T05:45:26.755Z,8.73
2017-09-20T05:47:57.026Z,8.67
2017-09-20T05:50:25.361Z,8.77
2017-09-20T05:52:53.694Z,8.73
2017-09-20T05:55:22.802Z,8.71
2017-09-20T05:57:51.141Z,8.81
2017-09-20T06:00:19.489Z,8.88
2017-09-20T06:02:47.802Z,8.93
2017-09-20T06:05:16.143Z,8.85
2017-09-20T06:07:45.249Z,8.94
2017-09-20T06:10:13.624Z,8.91
2017-09-20T06:12:44.115Z,8.94
2017-09-20T06:15:12.530Z,9.06
2017-09-20T06:17:40.845Z,9.05
2017-09-20T06:20:09.205Z,9.01
2017-09-20T06:22:38.423Z,9.16
2017-09-20T06:25:06.771Z,9.16
2017-09-20T06:27:35.101Z,9.22
2017-09-20T06:30:03.684Z,9.21
2017-09-20T06:32:32.002Z,9.22
2017-09-20T06:35:00.320Z,9.31
2017-09-20T06:37:28.666Z,9.35
2017-09-20T06:39:57.002Z,9.40
2017-09-20T06:42:25.328Z,9.49
2017-09-20T06:44:53.649Z,9.51
2017-09-20T06:47:21.995Z,9.59
2017-09-20T06:49:50.305Z,9.51
2017-09-20T06:52:18.654Z,9.64
2017-09-20T06:54:47.004Z,9.65
2017-09-20T06:57:15.330Z,9.59
2017-09-20T06:59:43.977Z,9.69
2017-09-20T07:02:12.310Z,9.81
2017-09-20T07:04:41.019Z,9.81
2017-09-20T07:07:09.341Z,9.78
2017-09-20T07:09:37.670Z,9.99
2017-09-20T07:12:06.793Z,10.11
2017-09-20T07:14:35.130Z,10.10
2017-09-20T07:17:03.451Z,10.15
2017-09-20T07:19:31.779Z,10.21
2017-09-20T07:22:00.171Z,10.32
2017-09-20T07:24:28.501Z,10.42
2017-09-20T07:26:56.867Z,10.43
2017-09-20T07:29:25.220Z,10.50
2017-09-20T07:31:53.548Z,10.54
2017-09-20T07:34:22.801Z,10.59
2017-09-20T07:36:51.151Z,10.52
2017-09-20T07:39:20.118Z,10.58
2017-09-20T07:41:48.453Z,10.60
2017-09-20T07:44:17.563Z,10.72
2017-09-20T07:46:45.898Z,10.83
2017-09-20T07:49:14.235Z,10.95
2017-09-20T07:51:42.581Z,11.02
2017-09-20T07:54:10.903Z,11.11
2017-09-20T07:56:39.730Z,11.09
2017-09-20T07:59:08.064Z,11.24
2017-09-20T08:01:36.402Z,11.34
2017-09-20T08:04:04.753Z,11.43
2017-09-20T08:06:33.075Z,11.48
2017-09-20T08:09:01.447Z,11.54
2017-09-20T08:11:29.773Z,11.53
2017-09-20T08:13:58.196Z,11.49
2017-09-20T08:16:26.520Z,11.53
2017-09-20T08:18:54.885Z,11.64
2017-09-20T08:21:23.245Z,11.74
2017-09-20T08:23:51.567Z,11.81
2017-09-20T08:26:20.034Z,11.90
2017-09-20T08:28:49.284Z,11.98
2017-09-20T08:31:18.103Z,12.05
2017-09-20T08:33:46.429Z,12.09
2017-09-20T08:36:14.759Z,12.17
2017-09-20T08:38:43.154Z,12.26
2017-09-20T08:41:11.492Z,12.28
2017-09-20T08:43:39.849Z,12.32
2017-09-20T08:46:08.172Z,12.37
2017-09-20T08:48:36.543Z,12.49
2017-09-20T08:51:04.867Z,12.59
2017-09-20T08:53:33.204Z,12.67
2017-09-20T08:56:01.587Z,12.74
2017-09-20T08:58:30.704Z,12.85
2017-09-20T09:01:03.073Z,12.92
2017-09-20T09:03:32.155Z,12.99
2017-09-20T09:06:00.502Z,13.05
2017-09-20T09:08:29.594Z,13.14
2017-09-20T09:10:57.942Z,13.18
2017-09-20T09:13:26.290Z,13.24
2017-09-20T09:15:54.673Z,13.32
2017-09-20T09:18:23.035Z,13.36
2017-09-20T09:20:51.382Z,13.44
2017-09-20T09:23:19.714Z,13.50
2017-09-20T09:25:48.842Z,13.54
2017-09-20T09:28:17.168Z,13.61
2017-09-20T09:30:45.883Z,13.61
2017-09-20T09:33:14.230Z,13.66
2017-09-20T09:35:42.574Z,13.63
2017-09-20T09:38:10.920Z,13.61
2017-09-20T09:40:40.024Z,13.64
2017-09-20T09:43:08.373Z,13.71
2017-09-20T09:45:38.244Z,13.83
2017-09-20T09:48:07.020Z,13.92
2017-09-20T09:50:35.370Z,14.04
2017-09-20T09:53:03.711Z,14.17
2017-09-20T09:55:32.079Z,14.23
2017-09-20T09:58:00.425Z,14.30
2017-09-20T10:00:29.545Z,14.33
2017-09-20T10:02:57.891Z,14.32
2017-09-20T10:05:26.290Z,14.33
2017-09-20T10:07:54.643Z,14.34
2017-09-20T10:10:22.971Z,14.34
2017-09-20T10:12:51.330Z,14.35
2017-09-20T10:15:19.679Z,14.34
2017-09-20T10:17:48.033Z,14.44
2017-09-20T10:20:16.357Z,14.50
2017-09-20T10:22:45.481Z,14.55
2017-09-20T10:25:13.838Z,14.60
2017-09-20T10:27:42.992Z,14.65
2017-09-20T10:30:11.337Z,14.74
2017-09-20T10:32:39.669Z,14.73
2017-09-20T10:35:08.036Z,14.66
2017-09-20T10:37:36.375Z,14.65
2017-09-20T10:40:04.998Z,14.59
2017-09-20T10:42:33.313Z,14.54
2017-09-20T10:45:01.707Z,14.51
2017-09-20T10:47:30.148Z,14.54
2017-09-20T10:49:58.538Z,14.49
2017-09-20T10:52:26.894Z,14.53
2017-09-20T10:54:55.328Z,14.58
2017-09-20T10:57:24.209Z,14.64
2017-09-20T10:59:52.554Z,14.64
2017-09-20T11:02:20.893Z,14.67
2017-09-20T11:04:49.289Z,14.72
2017-09-20T11:07:17.632Z,14.79
2017-09-20T11:09:45.982Z,14.82
2017-09-20T11:12:14.318Z,14.88
2017-09-20T11:14:42.986Z,14.85
2017-09-20T11:17:11.302Z,14.88
2017-09-20T11:19:39.628Z,14.95
2017-09-20T11:22:07.980Z,15.05
2017-09-20T11:24:36.328Z,15.10
2017-09-20T11:27:04.676Z,15.22
2017-09-20T11:29:33.004Z,15.35
2017-09-20T11:32:01.732Z,15.49
2017-09-20T11:34:30.066Z,15.67
2017-09-20T11:36:58.391Z,15.63
2017-09-20T11:39:26.805Z,15.60
2017-09-20T11:41:55.136Z,15.64
2017-09-20T11:44:24.260Z,15.67
2017-09-20T11:46:52.585Z,15.66
2017-09-20T11:49:21.428Z,15.70
2017-09-20T11:51:49.795Z,15.64
2017-09-20T11:54:18.125Z,15.61
2017-09-20T11:56:46.490Z,15.46
2017-09-20T11:59:14.825Z,15.35
2017-09-20T12:01:43.188Z,15.29
2017-09-20T12:04:12.447Z,15.18
2017-09-20T12:06:40.827Z,15.19
2017-09-20T12:09:09.153Z,15.22
2017-09-20T12:11:37.581Z,15.24
2017-09-20T12:14:05.901Z,15.33
2017-09-20T12:16:34.321Z,15.41
2017-09-20T12:19:03.442Z,15.48
2017-09-20T12:21:31.756Z,15.58
2017-09-20T12:24:00.111Z,15.64
2017-09-20T12:26:28.428Z,15.64
2017-09-20T12:28:56.753Z,15.67
2017-09-20T12:31:25.933Z,15.70
2017-09-20T12:33:54.304Z,15.73
2017-09-20T12:36:23.437Z,15.67
2017-09-20T12:38:52.655Z,15.65
2017-09-20T12:41:21.582Z,15.67
2017-09-20T12:43:49.911Z,15.71
2017-09-20T12:46:18.231Z,15.74
2017-09-20T12:48:46.575Z,15.81
2017-09-20T12:51:14.901Z,15.87
2017-09-20T12:53:43.258Z,15.89
2017-09-20T12:56:11.610Z,15.83
2017-09-20T12:58:40.283Z,15.84
2017-09-20T13:01:08.616Z,15.87
2017-09-20T13:03:36.944Z,15.89
2017-09-20T13:06:05.465Z,15.87
2017-09-20T13:08:33.804Z,15.84
2017-09-20T13:11:02.158Z,15.78
2017-09-20T13:13:30.475Z,15.87
2017-09-20T13:15:58.805Z,15.92
2017-09-20T13:18:27.170Z,15.86
2017-09-20T13:20:55.487Z,15.92
2017-09-20T13:23:23.820Z,16.02
2017-09-20T13:25:52.795Z,16.08
2017-09-20T13:28:21.190Z,16.12
2017-09-20T13:30:50.297Z,16.22
2017-09-20T13:33:18.627Z,16.25
2017-09-20T13:35:47.887Z,16.35
2017-09-20T13:38:16.212Z,16.25
2017-09-20T13:40:44.564Z,16.28
2017-09-20T13:43:12.905Z,16.18
2017-09-20T13:45:41.615Z,16.06
2017-09-20T13:48:09.936Z,16.01
2017-09-20T13:50:38.253Z,15.90
2017-09-20T13:53:06.612Z,15.92
2017-09-20T13:55:36.128Z,15.86
2017-09-20T13:58:05.423Z,16.02
2017-09-20T14:00:33.758Z,16.22
2017-09-20T14:03:02.867Z,16.24
2017-09-20T14:05:31.202Z,16.31
2017-09-20T14:07:59.582Z,16.36
2017-09-20T14:10:27.921Z,16.41
2017-09-20T14:12:56.262Z,16.53
2017-09-20T14:15:29.320Z,16.55
2017-09-20T14:17:57.641Z,16.68
2017-09-20T14:20:26.321Z,16.74
2017-09-20T14:22:55.479Z,16.72
2017-09-20T14:25:23.803Z,16.68
2017-09-20T14:27:52.188Z,16.67
2017-09-20T14:30:20.522Z,16.62
2017-09-20T14:32:48.912Z,16.56
2017-09-20T14:35:17.306Z,16.46
2017-09-20T14:37:46.297Z,16.58
2017-09-20T14:40:15.509Z,16.64
2017-09-20T14:42:43.901Z,16.63
2017-09-20T14:45:12.277Z,17.23
2017-09-20T14:47:40.604Z,17.40
2017-09-20T14:50:08.986Z,17.32
2017-09-20T14:52:37.317Z,17.13
2017-09-20T14:55:06.880Z,16.99
2017-09-20T14:57:35.231Z,16.91
2017-09-20T15:00:04.420Z,16.89
2017-09-20T15:02:32.778Z,16.82
2017-09-20T15:05:02.275Z,16.79
2017-09-20T15:07:31.617Z,16.72
2017-09-20T15:10:05.935Z,16.70
2017-09-20T15:12:35.449Z,16.59
2017-09-20T15:15:06.671Z,16.62
2017-09-20T15:17:35.026Z,16.62
2017-09-20T15:20:03.389Z,16.53
2017-09-20T15:22:31.732Z,16.48
2017-09-20T15:25:00.094Z,16.40
2017-09-20T15:27:28.426Z,16.38
2017-09-20T15:29:56.808Z,16.39
2017-09-20T15:32:25.153Z,16.38
2017-09-20T15:34:53.659Z,16.33
2017-09-20T15:37:22.497Z,16.40
2017-09-20T15:39:50.820Z,16.75
2017-09-20T15:42:19.163Z,17.09
2017-09-20T15:44:47.526Z,17.26
2017-09-20T15:47:15.858Z,17.54
2017-09-20T15:49:44.209Z,17.61
2017-09-20T15:52:12.544Z,17.99
2017-09-20T15:54:40.945Z,18.12
2017-09-20T15:57:10.304Z,18.15
2017-09-20T15:59:38.647Z,17.97
2017-09-20T16:02:06.978Z,18.29
2017-09-20T16:04:35.390Z,18.64
2017-09-20T16:07:04.473Z,18.77
2017-09-20T16:09:33.279Z,18.78
2017-09-20T16:12:03.583Z,18.59
2017-09-20T16:14:32.686Z,18.43
2017-09-20T16:17:01.030Z,18.27
2017-09-20T16:19:29.396Z,18.06
2017-09-20T16:21:58.133Z,18.00
2017-09-20T16:24:26.477Z,17.65
2017-09-20T16:26:54.818Z,17.52
2017-09-20T16:29:23.182Z,17.35
2017-09-20T16:31:52.271Z,17.11
2017-09-20T16:34:21.396Z,17.06
2017-09-20T16:36:50.285Z,16.90
2017-09-20T16:39:19.795Z,16.73
2017-09-20T16:41:50.330Z,16.50
2017-09-20T16:44:31.222Z,16.34
2017-09-20T16:47:01.943Z,16.13
2017-09-20T16:49:33.122Z,15.96
2017-09-20T16:52:01.476Z,15.63
2017-09-20T16:54:29.906Z,15.59
2017-09-20T16:56:58.239Z,15.42
2017-09-20T16:59:26.606Z,15.30
2017-09-20T17:01:56.866Z,15.11
2017-09-20T17:04:26.085Z,15.14
2017-09-20T17:06:56.227Z,15.01
2017-09-20T17:09:25.570Z,14.80
2017-09-20T17:11:56.171Z,14.73
2017-09-20T17:14:41.901Z,14.76
2017-09-20T17:17:10.276Z,14.60
2017-09-20T17:19:39.051Z,14.56
2017-09-20T17:22:07.624Z,14.28
2017-09-20T17:24:36.064Z,14.18
2017-09-20T17:27:04.683Z,14.00
2017-09-20T17:29:33.141Z,13.82
2017-09-20T17:32:01.576Z,13.65
2017-09-20T17:34:30.348Z,13.61
2017-09-20T17:36:58.911Z,13.51
2017-09-20T17:39:27.307Z,13.56
2017-09-20T17:41:55.663Z,13.38
2017-09-20T17:44:52.425Z,13.26
2017-09-20T17:47:21.530Z,13.23
2017-09-20T17:49:53.112Z,13.19
2017-09-20T17:52:35.510Z,13.12
2017-09-20T17:55:10.428Z,13.08
2017-09-20T17:57:39.189Z,12.93
2017-09-20T18:00:07.941Z,12.96
2017-09-20T18:02:44.738Z,12.85
2017-09-20T18:05:13.537Z,12.88
2017-09-20T18:07:42.786Z,12.85
2017-09-20T18:10:11.153Z,12.80
2017-09-20T18:12:39.510Z,12.57
2017-09-20T18:15:07.898Z,12.44
2017-09-20T18:17:37.008Z,12.20
2017-09-20T18:20:06.539Z,12.15
2017-09-20T18:22:34.911Z,12.10
2017-09-20T18:25:03.310Z,12.13
2017-09-20T18:27:32.908Z,12.17
2017-09-20T18:30:05.535Z,11.88
2017-09-20T18:32:38.255Z,11.87
2017-09-20T18:35:07.099Z,11.81
2017-09-20T18:37:35.624Z,11.86
2017-09-20T18:40:03.965Z,11.89
2017-09-20T18:42:34.231Z,11.87
2017-09-20T18:45:06.270Z,11.70
2017-09-20T18:47:35.602Z,11.69
2017-09-20T18:50:04.891Z,11.66
2017-09-20T18:52:33.261Z,11.75
2017-09-20T18:55:02.664Z,11.70
2017-09-20T18:57:34.343Z,11.63
2017-09-20T19:00:05.240Z,11.60
2017-09-20T19:02:33.573Z,11.50
2017-09-20T19:05:01.920Z,11.21
2017-09-20T19:07:30.919Z,11.20
2017-09-20T19:09:59.288Z,11.24
2017-09-20T19:12:27.965Z,11.28
2017-09-20T19:14:57.075Z,11.25
2017-09-20T19:17:26.565Z,11.23
2017-09-20T19:20:00.509Z,10.96
2017-09-20T19:22:28.879Z,11.12
2017-09-20T19:24:58.216Z,10.96
2017-09-20T19:27:26.553Z,10.86
2017-09-20T19:29:55.851Z,10.82
2017-09-20T19:32:26.409Z,10.92
2017-09-20T19:35:06.080Z,10.98
2017-09-20T19:40:08.418Z,10.96
2017-09-20T19:42:38.620Z,10.77
2017-09-20T19:45:08.898Z,10.82
2017-09-20T19:47:37.237Z,10.76
2017-09-20T19:50:06.871Z,10.78
2017-09-20T19:52:47.885Z,10.71
2017-09-20T19:55:16.243Z,10.49
2017-09-20T19:57:44.614Z,10.43
2017-09-20T20:00:16.348Z,10.45
2017-09-20T20:02:45.041Z,10.55
2017-09-20T20:05:13.419Z,10.56
2017-09-20T20:07:41.794Z,10.53
2017-09-20T20:10:10.252Z,10.25
2017-09-20T20:12:39.785Z,10.22
2017-09-20T20:15:09.094Z,10.21
2017-09-20T20:17:37.474Z,10.31
2017-09-20T20:20:05.841Z,10.32
2017-09-20T20:22:34.949Z,10.33
2017-09-20T20:25:03.281Z,10.30
2017-09-20T20:27:32.008Z,10.29
2017-09-20T20:30:01.098Z,10.12
2017-09-20T20:32:29.436Z,10.07
2017-09-20T20:34:58.284Z,10.08
2017-09-20T20:37:26.621Z,10.07
2017-09-20T20:39:54.967Z,9.83
2017-09-20T20:42:23.729Z,9.93
2017-09-20T20:44:52.330Z,9.75
2017-09-20T20:47:20.655Z,9.80
2017-09-20T20:49:49.840Z,9.85
2017-09-20T20:52:18.215Z,9.91
2017-09-20T20:54:46.552Z,9.83
2017-09-20T20:57:14.967Z,9.70
2017-09-20T20:59:43.334Z,9.69
2017-09-20T21:02:11.648Z,9.66
2017-09-20T21:04:40.008Z,9.69
2017-09-20T21:07:08.333Z,9.70
2017-09-20T21:09:40.601Z,9.71
2017-09-20T21:12:08.925Z,9.74
2017-09-20T21:14:37.265Z,9.69
2017-09-20T21:17:06.374Z,9.71
2017-09-20T21:19:34.709Z,9.63
2017-09-20T21:22:03.065Z,9.57
2017-09-20T21:24:31.390Z,9.57
2017-09-20T21:27:00.498Z,9.56
2017-09-20T21:29:29.692Z,9.54
2017-09-20T21:31:58.825Z,9.49
2017-09-20T21:34:27.196Z,9.39
2017-09-20T21:36:55.510Z,9.39
2017-09-20T21:39:23.861Z,9.35
2017-09-20T21:41:52.187Z,9.32
2017-09-20T21:44:20.899Z,9.30
2017-09-20T21:46:50.009Z,9.28
2017-09-20T21:49:18.931Z,9.25
2017-09-20T21:51:48.030Z,9.22
2017-09-20T21:54:18.388Z,9.06
2017-09-20T21:56:46.945Z,9.13
2017-09-20T21:59:15.529Z,9.13
2017-09-20T22:01:44.393Z,9.08
2017-09-20T22:04:13.814Z,9.09
2017-09-20T22:06:43.073Z,8.98
2017-09-20T22:09:13.298Z,8.97
2017-09-20T22:11:42.907Z,9.01
2017-09-20T22:14:12.011Z,8.85
2017-09-20T22:16:58.923Z,8.88
2017-09-20T22:19:45.028Z,8.86
2017-09-20T22:22:31.455Z,8.82
2017-09-20T22:25:17.795Z,8.80
2017-09-20T22:27:47.719Z,8.81
2017-09-20T22:30:16.100Z,8.81
2017-09-20T22:32:44.470Z,8.67
2017-09-20T22:35:12.850Z,8.71
2017-09-20T22:37:41.239Z,8.73
2017-09-20T22:40:09.971Z,8.58
2017-09-20T22:42:38.414Z,8.41
2017-09-20T22:45:08.649Z,8.53
2017-09-20T22:47:39.031Z,8.51
2017-09-20T22:50:10.949Z,8.54
2017-09-20T22:52:40.499Z,8.53
2017-09-20T22:55:08.915Z,8.54
2017-09-20T22:57:39.140Z,8.52
2017-09-20T23:00:10.576Z,8.52
2017-09-20T23:02:38.971Z,8.49
2017-09-20T23:05:08.068Z,8.45
2017-09-20T23:07:38.199Z,8.38
2017-09-20T23:10:07.302Z,8.20
2017-09-20T23:12:36.384Z,8.13
2017-09-20T23:15:04.725Z,8.03
2017-09-20T23:17:33.079Z,8.15
2017-09-20T23:20:01.396Z,8.18
2017-09-20T23:22:29.760Z,8.20
2017-09-20T23:24:58.102Z,8.23
2017-09-20T23:27:26.887Z,8.13
2017-09-20T23:29:55.204Z,8.02
2017-09-20T23:32:23.512Z,8.10
2017-09-20T23:34:51.842Z,8.17
2017-09-20T23:37:20.175Z,8.14
2017-09-20T23:39:48.517Z,8.14
2017-09-20T23:42:16.841Z,8.12
2017-09-20T23:44:46.957Z,8.09
2017-09-20T23:47:15.281Z,8.04
2017-09-20T23:49:43.583Z,8.02
2017-09-20T23:52:12.406Z,8.04
2017-09-20T23:54:41.482Z,7.94
2017-09-20T23:57:09.832Z,7.90
2017-09-20T23:59:39.093Z,7.92
